Time;durP1;ratioP1;P1;durP2;ratioP2;P2;SDS_P1;SDS_P2;PMS_P1;PMS_P2;Temp;Humidity;BMP_temperature;BMP_pressure;BME280_temperature;BME280_humidity;BME280_pressure;Samples;Min_cycle;Max_cycle;Signal;HPM_P1;HPM_P2
2021/07/14 00:02:02;;;;;;;16.05;14.47;;;;;;;22.80;62.92;99766.03;1805157;78;20997;-69
2021/07/14 00:04:28;;;;;;;14.83;13.25;;;;;;;22.78;63.01;99770.11;1820954;78;21429;-69
2021/07/14 00:06:54;;;;;;;18.67;14.50;;;;;;;22.75;63.09;99761.12;1804763;78;21033;-69
2021/07/14 00:09:20;;;;;;;21.62;14.40;;;;;;;22.71;63.20;99760.02;1825238;78;20954;-69
2021/07/14 00:12:20;;;;;;;15.30;13.80;;;;;;;22.69;63.30;99767.63;1825107;78;20978;-69
2021/07/14 00:17:13;;;;;;;15.98;14.38;;;;;;;22.64;63.49;99768.92;1815785;78;21404;-69
2021/07/14 00:22:14;;;;;;;15.43;13.93;;;;;;;22.60;63.65;99789.55;1824960;78;20966;-69
2021/07/14 00:24:40;;;;;;;17.67;15.32;;;;;;;22.57;63.77;99794.16;1794149;78;20981;-70
2021/07/14 00:27:06;;;;;;;16.77;14.38;;;;;;;22.54;63.86;99790.61;1807286;78;20990;-70
2021/07/14 00:29:36;;;;;;;18.48;16.07;;;;;;;22.54;63.95;99787.89;1824904;78;21323;-70
2021/07/14 00:32:05;;;;;;;16.52;14.60;;;;;;;22.52;64.03;99796.86;1794693;78;20970;-69
2021/07/14 00:34:31;;;;;;;15.95;14.40;;;;;;;22.52;64.13;99800.94;1818823;78;20979;-69
2021/07/14 00:36:57;;;;;;;17.07;15.38;;;;;;;22.50;64.21;99789.49;1822853;78;21372;-69
2021/07/14 00:39:23;;;;;;;18.30;16.20;;;;;;;22.47;64.29;99790.02;1797670;78;21679;-70
2021/07/14 00:41:49;;;;;;;18.48;16.55;;;;;;;22.44;64.36;99793.27;1814813;77;21513;-69
2021/07/14 00:44:16;;;;;;;23.98;16.82;;;;;;;22.40;64.48;99803.84;1825185;78;21014;-69
2021/07/14 00:46:46;;;;;;;17.90;15.60;;;;;;;22.37;64.56;99805.73;1823073;78;20978;-69
2021/07/14 00:49:13;;;;;;;19.92;16.17;;;;;;;22.33;64.67;99814.12;1796048;78;21451;-69
2021/07/14 00:51:39;;;;;;;18.30;16.40;;;;;;;22.31;64.79;99822.52;1822053;78;21394;-69
2021/07/14 00:54:05;;;;;;;18.37;15.58;;;;;;;22.31;64.87;99835.28;1792817;78;21474;-70
2021/07/14 00:56:31;;;;;;;18.92;16.82;;;;;;;22.22;64.99;99835.49;1818712;78;21018;-70
2021/07/14 00:58:57;;;;;;;20.08;17.95;;;;;;;22.08;65.18;99843.27;1794957;78;21005;-70
2021/07/14 01:01:24;;;;;;;21.27;19.10;;;;;;;22.04;65.40;99844.03;1822701;78;20994;-69
2021/07/14 01:04:22;;;;;;;24.80;19.37;;;;;;;22.00;65.54;99844.26;1822704;78;20966;-69
2021/07/14 01:07:10;;;;;;;20.75;17.90;;;;;;;22.00;65.71;99836.11;1819874;78;21268;-69
2021/07/14 01:10:07;;;;;;;20.77;18.27;;;;;;;22.00;65.83;99828.78;1822701;78;20990;-69
2021/07/14 01:13:04;;;;;;;21.60;18.57;;;;;;;21.98;65.95;99823.34;1791672;78;21005;-69
2021/07/14 01:15:37;;;;;;;21.80;19.32;;;;;;;21.91;66.12;99822.20;1825008;77;21003;-69
2021/07/14 01:18:28;;;;;;;21.12;19.02;;;;;;;21.87;66.28;99819.69;1795608;78;20979;-69
2021/07/14 01:21:06;;;;;;;21.80;19.70;;;;;;;21.84;66.40;99825.09;1824672;78;21481;-69
2021/07/14 01:24:07;;;;;;;23.80;20.27;;;;;;;21.75;66.53;99833.94;1822845;78;21451;-69
2021/07/14 01:26:42;;;;;;;22.20;19.90;;;;;;;21.65;66.81;99828.42;1824777;78;20994;-69
2021/07/14 01:29:11;;;;;;;22.90;19.50;;;;;;;21.63;67.00;99827.86;1794442;78;21116;-69
2021/07/14 01:31:36;;;;;;;23.70;19.55;;;;;;;21.61;67.17;99831.36;1808209;78;21432;-70
2021/07/14 01:34:04;;;;;;;21.27;19.00;;;;;;;21.58;67.32;99827.80;1806604;78;21854;-69
2021/07/14 01:36:30;;;;;;;21.15;19.02;;;;;;;21.57;67.45;99832.41;1822463;78;21010;-69
2021/07/14 01:38:56;;;;;;;22.13;18.52;;;;;;;21.55;67.56;99834.56;1823133;78;21474;-69
2021/07/14 01:41:22;;;;;;;21.35;19.25;;;;;;;21.51;67.72;99845.64;1825027;77;20962;-69
2021/07/14 01:43:52;;;;;;;20.90;18.80;;;;;;;21.49;67.85;99841.55;1822104;78;21009;-69
2021/07/14 01:46:19;;;;;;;21.33;19.02;;;;;;;21.45;67.99;99839.89;1825128;78;22020;-69
2021/07/14 01:48:45;;;;;;;21.35;18.75;;;;;;;21.43;68.13;99834.44;1781219;80;21021;-69
2021/07/14 01:51:12;;;;;;;23.50;19.17;;;;;;;21.41;68.28;99838.22;1793588;78;21076;-69
2021/07/14 01:53:38;;;;;;;25.88;19.87;;;;;;;21.39;68.43;99838.20;1795049;78;21483;-69
2021/07/14 01:56:09;;;;;;;23.25;20.20;;;;;;;21.38;68.52;99834.66;1820992;78;21033;-69
2021/07/14 01:58:37;;;;;;;22.30;19.95;;;;;;;21.37;68.59;99837.61;1798031;78;21219;-69
2021/07/14 02:01:06;;;;;;;21.50;19.15;;;;;;;21.31;68.76;99823.72;1802108;78;20994;-69
2021/07/14 02:06:01;;;;;;;20.37;18.30;;;;;;;21.22;69.00;99817.91;1796258;78;21435;-69
2021/07/14 02:08:28;;;;;;;21.35;19.12;;;;;;;21.18;69.12;99809.98;1820569;78;20998;-69
2021/07/14 02:10:54;;;;;;;22.55;20.25;;;;;;;21.15;69.23;99817.28;1828376;78;21156;-69
2021/07/14 02:13:21;;;;;;;22.48;20.35;;;;;;;21.13;69.37;99814.55;1807766;77;21553;-69
2021/07/14 02:15:51;;;;;;;25.23;20.55;;;;;;;21.11;69.47;99816.14;1795855;79;21010;-69
2021/07/14 02:18:17;;;;;;;23.45;20.32;;;;;;;21.09;69.60;99812.02;1795984;78;21029;-69
2021/07/14 02:20:43;;;;;;;23.22;20.88;;;;;;;21.09;69.68;99826.41;1796126;79;21510;-69
2021/07/14 02:23:09;;;;;;;24.35;20.92;;;;;;;21.08;69.79;99829.36;1806863;78;21709;-69
2021/07/14 02:25:36;;;;;;;24.15;21.70;;;;;;;21.03;69.87;99831.48;1828410;78;20979;-69
2021/07/14 02:28:03;;;;;;;22.25;19.92;;;;;;;21.00;70.01;99834.70;1825618;78;21416;-69
2021/07/14 02:30:29;;;;;;;27.05;22.45;;;;;;;20.97;70.15;99827.05;1828469;78;20989;-69
2021/07/14 02:33:07;;;;;;;24.23;21.62;;;;;;;20.92;70.23;99818.87;1807818;78;21526;-69
2021/07/14 02:35:37;;;;;;;26.17;23.13;;;;;;;20.83;70.39;99808.16;1817536;78;21911;-69
2021/07/14 02:38:08;;;;;;;26.48;22.20;;;;;;;20.73;70.55;99795.83;1814143;78;21990;-69
2021/07/14 02:41:01;;;;;;;24.67;22.27;;;;;;;20.67;70.72;99803.61;1795701;79;21105;-69
2021/07/14 02:43:28;;;;;;;27.67;23.45;;;;;;;20.60;70.89;99805.69;1796146;78;21471;-69
2021/07/14 02:45:59;;;;;;;27.67;24.18;;;;;;;20.55;71.11;99815.91;1805690;78;20985;-69
2021/07/14 02:48:26;;;;;;;26.97;24.15;;;;;;;20.54;71.20;99808.05;1804781;78;21147;-69
2021/07/14 02:50:55;;;;;;;23.73;21.50;;;;;;;20.51;71.37;99801.24;1815528;78;37378;-70
2021/07/14 02:53:25;;;;;;;26.25;22.42;;;;;;;20.50;71.50;99790.64;1813390;78;21541;-69
2021/07/14 02:55:54;;;;;;;26.87;22.75;;;;;;;20.52;71.57;99796.62;1795775;78;20974;-69
2021/07/14 02:58:25;;;;;;;;;;;;;;;20.52;71.63;99795.27;1810875;78;20977;-69
2021/07/14 03:00:51;;;;;;;24.27;21.42;;;;;;;20.55;71.72;99805.63;1828119;78;21063;-69
2021/07/14 03:03:17;;;;;;;23.95;21.55;;;;;;;20.58;71.75;99810.55;1805323;78;20969;-69
2021/07/14 03:05:43;;;;;;;24.23;21.73;;;;;;;20.61;71.79;99808.16;1795665;80;21072;-69
2021/07/14 03:08:14;;;;;;;24.95;22.40;;;;;;;20.65;71.81;99816.08;1815369;78;20970;-69
2021/07/14 03:10:37;;;;;;;25.68;22.77;;;;;;;20.70;71.86;99812.59;1827636;78;20967;-69
2021/07/14 03:13:04;;;;;;;25.45;22.87;;;;;;;20.71;71.91;99800.16;1819983;78;21154;-69
2021/07/14 03:15:31;;;;;;;25.82;23.32;;;;;;;20.73;71.95;99807.50;1795985;78;20985;-69
2021/07/14 03:17:57;;;;;;;27.22;24.00;;;;;;;20.75;72.01;99801.84;1795755;79;21569;-69
2021/07/14 03:20:23;;;;;;;31.35;27.67;;;;;;;20.78;72.02;99806.75;1795853;80;21088;-69
2021/07/14 03:22:50;;;;;;;36.58;32.85;;;;;;;20.80;72.09;99797.82;1795837;80;21080;-69
2021/07/14 03:25:17;;;;;;;37.53;31.52;;;;;;;20.85;72.09;99792.48;1795791;79;21177;-69
2021/07/14 03:27:45;;;;;;;30.97;27.82;;;;;;;20.88;72.09;99801.46;1805933;78;21001;-69
2021/07/14 03:30:12;;;;;;;32.35;27.58;;;;;;;20.90;72.12;99799.30;1773307;78;20978;-69
2021/07/14 03:32:39;;;;;;;28.80;25.92;;;;;;;20.89;72.19;99800.40;1825507;78;21010;-69
2021/07/14 03:35:07;;;;;;;28.85;25.90;;;;;;;20.85;72.23;99812.81;1812429;78;21724;-69
2021/07/14 03:37:34;;;;;;;28.90;25.12;;;;;;;20.83;72.36;99809.52;1769496;80;21154;-69
2021/07/14 03:40:02;;;;;;;26.10;23.32;;;;;;;20.85;72.42;99819.05;1743959;80;21014;-69
2021/07/14 03:42:28;;;;;;;25.75;23.15;;;;;;;20.86;72.54;99806.33;1795845;79;21586;-69
2021/07/14 03:44:54;;;;;;;26.12;23.50;;;;;;;20.88;72.62;99801.46;1795850;80;20991;-69
2021/07/14 03:47:20;;;;;;;28.70;22.85;;;;;;;20.95;72.65;99800.73;1805067;78;20974;-69
2021/07/14 03:49:46;;;;;;;25.10;22.65;;;;;;;21.04;72.68;99797.06;1827782;78;21447;-69
2021/07/14 03:52:14;;;;;;;30.32;23.73;;;;;;;21.12;72.72;99802.87;1805331;78;20927;-69
2021/07/14 03:54:40;;;;;;;25.30;22.37;;;;;;;21.18;72.77;99807.84;1828459;78;20979;-69
2021/07/14 03:57:08;;;;;;;25.02;22.22;;;;;;;21.30;72.75;99810.69;1816528;78;21037;-69
2021/07/14 03:59:35;;;;;;;26.52;23.52;;;;;;;21.39;72.71;99809.71;1808471;78;21037;-69
2021/07/14 04:02:01;;;;;;;25.70;23.00;;;;;;;21.50;72.68;99793.00;1754698;78;21426;-69
2021/07/14 04:04:27;;;;;;;27.45;22.93;;;;;;;21.61;72.63;99782.50;1796069;78;21013;-69
2021/07/14 04:06:58;;;;;;;26.23;22.93;;;;;;;21.71;72.56;99775.28;1798797;78;21006;-70
2021/07/14 04:09:27;;;;;;;24.75;22.20;;;;;;;21.77;72.45;99764.77;1827934;78;20974;-69
2021/07/14 04:11:59;;;;;;;22.77;20.45;;;;;;;21.85;72.38;99763.45;1810188;78;20997;-69
2021/07/14 04:14:27;;;;;;;24.72;21.68;;;;;;;21.96;72.29;99765.73;1827971;78;21560;-69
2021/07/14 04:16:55;;;;;;;22.82;20.45;;;;;;;22.11;72.20;99771.30;1827731;78;20974;-70
2021/07/14 04:19:21;;;;;;;22.37;20.10;;;;;;;22.27;72.07;99768.98;1790528;75;21042;-68
2021/07/14 04:21:47;;;;;;;23.30;20.88;;;;;;;22.42;71.93;99769.06;1690140;82;20931;-68
2021/07/14 04:24:14;;;;;;;26.25;19.95;;;;;;;22.59;71.87;99776.49;1675791;85;21046;-68
2021/07/14 04:26:40;;;;;;;23.18;20.77;;;;;;;22.80;71.67;99778.80;1675532;85;21757;-68
2021/07/14 04:29:06;;;;;;;23.92;19.82;;;;;;;23.03;71.50;99783.00;1675660;85;21011;-68
2021/07/14 04:31:34;;;;;;;21.65;19.35;;;;;;;23.29;71.28;99779.29;1675557;85;21458;-68
2021/07/14 04:34:01;;;;;;;21.97;19.67;;;;;;;23.54;71.01;99770.39;1675566;85;21022;-68
2021/07/14 04:36:27;;;;;;;21.37;19.15;;;;;;;23.87;70.78;99785.66;1675617;85;21045;-68
2021/07/14 04:38:53;;;;;;;20.57;18.48;;;;;;;24.10;70.30;99785.64;1675714;85;21915;-68
2021/07/14 04:41:19;;;;;;;21.25;18.10;;;;;;;24.26;69.96;99783.23;1675257;84;21568;-68
2021/07/14 04:43:45;;;;;;;26.62;17.52;;;;;;;24.42;69.79;99781.27;1675219;85;21506;-68
2021/07/14 04:46:11;;;;;;;20.23;17.23;;;;;;;24.26;69.55;99784.59;1675446;85;21554;-68
2021/07/14 04:48:37;;;;;;;19.77;17.67;;;;;;;24.07;69.46;99783.47;1675217;85;21093;-68
2021/07/14 04:51:03;;;;;;;20.37;18.27;;;;;;;24.03;69.40;99785.10;1675536;84;22575;-68
2021/07/14 04:53:30;;;;;;;20.12;17.95;;;;;;;24.03;69.32;99778.29;1675629;84;20950;-68
2021/07/14 04:55:56;;;;;;;22.42;18.62;;;;;;;23.86;69.11;99770.40;1674971;85;21133;-68
2021/07/14 04:58:22;;;;;;;20.27;18.23;;;;;;;23.75;69.06;99770.12;1675603;85;21493;-68
2021/07/14 05:00:48;;;;;;;21.42;18.55;;;;;;;23.67;69.01;99757.60;1675556;85;20919;-68
2021/07/14 05:03:14;;;;;;;22.65;18.20;;;;;;;23.64;69.02;99754.06;1675538;85;21791;-68
2021/07/14 05:05:40;;;;;;;20.72;18.65;;;;;;;23.61;69.02;99754.04;1675272;85;21030;-67
2021/07/14 05:08:06;;;;;;;19.95;17.95;;;;;;;23.62;68.96;99749.41;1675503;85;21077;-68
2021/07/14 05:10:32;;;;;;;21.17;19.20;;;;;;;23.74;68.96;99756.80;1675501;84;21026;-68
2021/07/14 05:12:58;;;;;;;20.57;18.57;;;;;;;23.96;68.89;99757.31;1675389;85;21018;-68
2021/07/14 05:15:24;;;;;;;20.68;18.50;;;;;;;24.14;68.82;99764.14;1675546;85;21957;-68
2021/07/14 05:17:51;;;;;;;25.17;19.40;;;;;;;24.31;68.72;99770.94;1675564;85;21054;-68
2021/07/14 05:20:20;;;;;;;25.15;18.50;;;;;;;24.58;68.61;99771.17;1661059;85;21481;-68
2021/07/14 05:22:47;;;;;;;19.80;17.65;;;;;;;24.73;68.35;99776.59;1620992;88;21077;-70
2021/07/14 05:25:13;;;;;;;20.08;17.77;;;;;;;24.82;68.22;99777.63;1621360;88;21069;-70
2021/07/14 05:27:39;;;;;;;21.35;18.20;;;;;;;24.92;67.96;99778.98;1621161;88;22030;-70
2021/07/14 05:30:06;;;;;;;20.27;18.07;;;;;;;25.17;67.85;99778.88;1621275;88;21046;-70
2021/07/14 05:32:32;;;;;;;22.27;18.10;;;;;;;25.32;67.50;99788.36;1621188;88;21010;-70
2021/07/14 05:34:59;;;;;;;19.73;17.82;;;;;;;25.56;67.31;99797.25;1628246;87;21053;-70
2021/07/14 05:37:25;;;;;;;19.85;17.95;;;;;;;25.82;66.98;99801.45;1648288;87;21519;-70
2021/07/14 05:39:51;;;;;;;19.73;17.77;;;;;;;26.17;66.79;99812.14;1650789;86;22521;-70
2021/07/14 05:42:17;;;;;;;23.22;18.92;;;;;;;26.48;66.44;99811.84;1678760;85;20974;-70
2021/07/14 05:44:43;;;;;;;21.82;18.07;;;;;;;26.57;66.14;99812.84;1678749;85;20998;-70
2021/07/14 05:47:09;;;;;;;18.42;16.45;;;;;;;26.64;65.82;99825.07;1670493;85;21077;-70
2021/07/14 05:49:35;;;;;;;25.72;17.42;;;;;;;26.65;65.56;99828.63;1648068;87;21085;-70
2021/07/14 05:52:01;;;;;;;20.57;18.48;;;;;;;26.62;65.35;99834.68;1647572;87;21860;-70
2021/07/14 05:54:28;;;;;;;20.62;18.45;;;;;;;26.76;65.20;99845.20;1647665;85;21117;-70
2021/07/14 05:56:54;;;;;;;20.02;18.02;;;;;;;26.96;64.93;99853.22;1621143;88;21017;-70
2021/07/14 05:59:20;;;;;;;19.80;17.42;;;;;;;26.99;64.66;99848.53;1621432;88;21092;-71
2021/07/14 06:01:46;;;;;;;20.25;18.25;;;;;;;26.91;64.46;99852.47;1620819;87;21006;-70
2021/07/14 06:04:12;;;;;;;20.75;18.75;;;;;;;26.77;64.27;99848.21;1621191;88;21963;-70
2021/07/14 06:06:38;;;;;;;22.35;18.73;;;;;;;26.54;64.01;99840.22;1621085;88;21361;-70
2021/07/14 06:09:04;;;;;;;21.27;18.87;;;;;;;26.19;64.04;99846.83;1621236;88;21018;-70
2021/07/14 06:11:30;;;;;;;20.15;18.05;;;;;;;26.05;64.08;99843.08;1621223;88;21002;-70
2021/07/14 06:13:56;;;;;;;21.10;18.90;;;;;;;25.91;64.05;99844.83;1621091;88;20998;-70
2021/07/14 06:16:22;;;;;;;20.60;18.50;;;;;;;25.83;64.10;99845.42;1621333;87;21780;-70
2021/07/14 06:18:48;;;;;;;22.82;20.62;;;;;;;25.78;64.18;99856.39;1621036;86;21526;-70
2021/07/14 06:21:14;;;;;;;23.02;19.32;;;;;;;25.81;64.16;99843.53;1620895;87;20895;-70
2021/07/14 06:23:40;;;;;;;23.47;19.65;;;;;;;26.15;64.16;99843.00;1620784;88;21021;-70
2021/07/14 06:26:06;;;;;;;23.70;19.60;;;;;;;26.48;63.94;99851.50;1639903;87;21006;-71
2021/07/14 06:28:32;;;;;;;20.10;18.00;;;;;;;26.72;63.74;99861.39;1626869;86;21854;-71
2021/07/14 06:30:58;;;;;;;21.82;18.30;;;;;;;26.90;63.51;99861.78;1662310;85;21026;-70
2021/07/14 06:33:24;;;;;;;20.50;18.60;;;;;;;27.00;63.32;99873.44;1618675;87;21059;-71
2021/07/14 06:35:51;;;;;;;21.90;16.70;;;;;;;27.05;63.07;99873.39;1630925;86;21022;-70
2021/07/14 06:38:20;;;;;;;19.52;17.23;;;;;;;27.01;62.82;99876.44;1647819;85;21036;-70
2021/07/14 06:40:46;;;;;;;24.43;17.92;;;;;;;26.90;62.61;99872.18;1633367;86;22554;-70
2021/07/14 06:43:17;;;;;;;19.10;17.10;;;;;;;26.98;62.46;99877.03;1678541;85;21061;-70
2021/07/14 06:45:43;;;;;;;20.02;17.02;;;;;;;26.98;62.21;99882.50;1678701;85;21014;-70
2021/07/14 06:48:10;;;;;;;20.12;17.02;;;;;;;27.10;62.13;99887.00;1678532;85;21078;-70
2021/07/14 06:50:36;;;;;;;18.77;16.77;;;;;;;27.17;62.02;99892.95;1678386;85;21013;-70
2021/07/14 06:53:03;;;;;;;18.67;16.67;;;;;;;27.09;61.88;99910.00;1652993;85;22492;-70
2021/07/14 06:55:33;;;;;;;18.52;16.48;;;;;;;26.88;61.64;99919.56;1648490;85;21023;-70
2021/07/14 06:58:00;;;;;;;20.72;17.05;;;;;;;26.54;61.61;99923.65;1647809;87;21018;-70
2021/07/14 07:00:26;;;;;;;18.25;16.62;;;;;;;26.22;61.57;99929.64;1619939;88;21575;-70
2021/07/14 07:02:52;;;;;;;23.45;18.82;;;;;;;26.12;61.66;99929.68;1619955;88;21069;-70
2021/07/14 07:05:19;;;;;;;21.30;18.60;;;;;;;26.37;61.64;99927.89;1620159;88;21807;-70
2021/07/14 07:07:45;;;;;;;20.20;17.92;;;;;;;26.47;61.41;99916.33;1619563;88;21093;-71
2021/07/14 07:10:12;;;;;;;19.48;17.48;;;;;;;26.23;61.23;99911.32;1617544;88;21041;-71
2021/07/14 07:12:38;;;;;;;21.95;17.60;;;;;;;25.82;61.28;99899.82;1621173;88;20990;-71
2021/07/14 07:15:05;;;;;;;19.60;17.45;;;;;;;25.57;61.46;99889.02;1618747;87;21473;-71
2021/07/14 07:17:31;;;;;;;20.85;17.57;;;;;;;25.47;61.68;99899.97;1633399;87;22761;-69
2021/07/14 07:19:57;;;;;;;19.90;17.55;;;;;;;25.39;61.80;99906.00;1616110;87;21018;-70
2021/07/14 07:22:23;;;;;;;21.17;15.63;;;;;;;25.42;62.02;99904.89;1645456;84;21104;-70
2021/07/14 07:24:49;;;;;;;20.12;15.78;;;;;;;25.86;62.23;99904.99;1629855;86;21022;-70
2021/07/14 07:27:15;;;;;;;20.52;14.53;;;;;;;26.27;62.15;99924.15;1637251;85;21071;-70
2021/07/14 07:29:41;;;;;;;17.45;13.58;;;;;;;26.62;61.86;99935.91;1654506;85;21592;-71
2021/07/14 07:32:07;;;;;;;21.35;13.83;;;;;;;26.54;61.71;99950.19;1650660;85;20952;-70
2021/07/14 07:34:34;;;;;;;17.85;12.55;;;;;;;26.56;61.72;99964.41;1649332;85;21054;-70
2021/07/14 07:37:02;;;;;;;16.80;11.48;;;;;;;26.87;61.57;99978.68;1647454;85;21044;-70
2021/07/14 07:39:28;;;;;;;15.78;11.78;;;;;;;26.98;61.31;99987.89;1649326;84;21106;-70
2021/07/14 07:41:54;;;;;;;18.52;12.03;;;;;;;27.09;60.98;99994.88;1648386;85;22564;-70
2021/07/14 07:44:20;;;;;;;18.48;12.10;;;;;;;27.07;60.75;100002.58;1648579;85;21057;-69
2021/07/14 07:46:46;;;;;;;23.60;11.75;;;;;;;27.12;60.71;100012.12;1650759;85;21019;-69
2021/07/14 07:49:12;;;;;;;13.38;9.88;;;;;;;27.45;60.67;100018.65;1649982;85;21081;-70
2021/07/14 07:51:38;;;;;;;15.15;10.15;;;;;;;27.41;60.38;100036.73;1631863;87;21063;-70
2021/07/14 07:54:04;;;;;;;15.75;8.88;;;;;;;27.28;60.26;100072.48;1649850;85;22677;-69
2021/07/14 07:56:31;;;;;;;18.32;10.53;;;;;;;27.21;60.21;100092.53;1653469;85;21018;-69
2021/07/14 07:59:01;;;;;;;18.17;11.05;;;;;;;26.99;60.05;100115.97;1657109;85;21045;-71
2021/07/14 08:01:27;;;;;;;10.53;8.03;;;;;;;26.43;59.99;100109.98;1650933;85;21106;-70
2021/07/14 08:03:53;;;;;;;15.95;6.58;;;;;;;26.18;60.29;100100.81;1650391;85;21098;-70
2021/07/14 08:06:20;;;;;;;9.18;5.17;;;;;;;25.99;60.34;100121.64;1653064;85;22652;-70
2021/07/14 08:08:46;;;;;;;9.85;5.47;;;;;;;25.82;60.39;100132.89;1657988;85;22136;-70
2021/07/14 08:11:12;;;;;;;10.98;4.47;;;;;;;25.53;60.49;100141.94;1651995;85;21006;-70
2021/07/14 08:13:38;;;;;;;15.90;5.53;;;;;;;25.15;60.76;100149.56;1653464;85;21026;-70
2021/07/14 08:16:04;;;;;;;14.33;5.00;;;;;;;24.78;61.08;100146.99;1657333;85;21061;-70
2021/07/14 08:18:30;;;;;;;10.68;4.97;;;;;;;24.51;61.42;100144.19;1675221;85;21814;-70
2021/07/14 08:20:57;;;;;;;9.10;4.67;;;;;;;24.31;61.79;100153.12;1671131;84;21037;-70
2021/07/14 08:23:24;;;;;;;14.93;4.92;;;;;;;24.24;62.08;100160.14;1638378;87;21034;-69
2021/07/14 08:25:51;;;;;;;15.70;5.05;;;;;;;24.11;62.43;100136.08;1651223;86;21162;-69
2021/07/14 08:28:19;;;;;;;7.83;5.65;;;;;;;24.03;62.74;100129.76;1652633;86;21052;-69
2021/07/14 08:30:45;;;;;;;12.37;4.62;;;;;;;24.17;63.01;100091.44;1657545;85;21974;-69
2021/07/14 08:33:11;;;;;;;10.25;5.12;;;;;;;24.48;63.10;100077.92;1646508;87;21450;-69
2021/07/14 08:35:40;;;;;;;8.68;4.40;;;;;;;24.70;63.20;100067.62;1632201;86;20977;-69
2021/07/14 08:38:06;;;;;;;9.33;5.15;;;;;;;24.99;63.14;100049.64;1668391;85;21002;-69
2021/07/14 08:40:32;;;;;;;7.97;5.03;;;;;;;25.07;63.02;100040.92;1627722;86;21084;-69
2021/07/14 08:42:59;;;;;;;7.00;4.15;;;;;;;25.04;62.90;100040.11;1636098;86;21942;-69
2021/07/14 08:45:25;;;;;;;15.25;5.62;;;;;;;25.10;62.83;100043.09;1647644;85;21442;-69
2021/07/14 08:47:51;;;;;;;15.28;5.20;;;;;;;25.16;62.84;100044.72;1662876;85;21103;-69
2021/07/14 08:50:19;;;;;;;11.57;5.35;;;;;;;25.20;62.72;100048.55;1627368;86;21037;-69
2021/07/14 08:52:48;;;;;;;7.97;5.33;;;;;;;25.19;62.68;100046.89;1631737;86;21457;-69
2021/07/14 08:55:14;;;;;;;13.75;6.05;;;;;;;25.16;62.56;100044.72;1627540;88;21849;-69
2021/07/14 08:57:41;;;;;;;10.15;5.58;;;;;;;25.15;62.52;100043.11;1641430;86;21556;-69
2021/07/14 09:00:12;;;;;;;8.90;4.80;;;;;;;25.10;62.44;100045.00;1637305;86;21100;-70
2021/07/14 09:02:39;;;;;;;9.05;5.10;;;;;;;25.11;62.42;100042.02;1637288;86;21064;-69
2021/07/14 09:05:06;;;;;;;11.30;4.35;;;;;;;25.16;62.40;100037.08;1654236;86;21184;-69
2021/07/14 09:07:32;;;;;;;8.75;4.65;;;;;;;25.23;62.24;100023.42;1644339;86;21871;-69
2021/07/14 09:09:58;;;;;;;15.43;4.15;;;;;;;25.17;62.06;100020.98;1628529;86;21061;-69
2021/07/14 09:12:39;;;;;;;10.10;4.45;;;;;;;25.05;62.02;100006.81;1648502;85;21024;-69
2021/07/14 09:15:08;;;;;;;8.63;4.40;;;;;;;24.98;61.96;99990.70;1651279;85;21046;-69
2021/07/14 09:17:34;;;;;;;10.25;3.98;;;;;;;24.94;61.86;99995.09;1656372;85;21061;-69
2021/07/14 09:20:04;;;;;;;12.43;5.03;;;;;;;24.90;61.78;100019.91;1627100;88;21997;-70
2021/07/14 09:22:32;;;;;;;12.45;4.30;;;;;;;24.92;61.78;100025.91;1624070;86;21112;-69
2021/07/14 09:24:58;;;;;;;10.93;4.08;;;;;;;25.04;61.76;100022.37;1625254;86;21034;-69
2021/07/14 09:27:35;;;;;;;6.30;3.42;;;;;;;25.22;61.71;100021.80;1610399;88;21105;-69
2021/07/14 09:30:08;;;;;;;14.00;4.90;;;;;;;25.33;61.66;100015.21;1677771;85;21029;-69
2021/07/14 09:32:51;;;;;;;9.70;4.85;;;;;;;25.43;61.60;100016.30;1677897;85;21895;-69
2021/07/14 09:35:42;;;;;;;6.28;3.50;;;;;;;25.55;61.41;100033.22;1630289;86;21109;-69
2021/07/14 09:38:26;;;;;;;7.28;2.90;;;;;;;25.51;61.13;100049.91;1625944;86;21519;-69
2021/07/14 09:41:01;;;;;;;7.70;3.10;;;;;;;25.31;60.92;100055.63;1600121;89;21076;-69
2021/07/14 09:43:31;;;;;;;5.87;3.02;;;;;;;25.13;60.82;100082.66;1628352;86;21069;-69
2021/07/14 09:46:05;;;;;;;12.63;5.53;;;;;;;25.03;60.61;100112.14;1651613;86;21860;-69
2021/07/14 09:48:42;;;;;;;35.23;16.40;;;;;;;24.91;60.56;100115.66;1638595;86;22041;-69
2021/07/14 09:51:19;;;;;;;15.30;8.65;;;;;;;24.84;60.47;100121.92;1651241;87;21085;-69
2021/07/14 09:53:47;;;;;;;11.00;6.20;;;;;;;24.77;60.46;100107.73;1625436;88;21015;-69
2021/07/14 09:56:20;;;;;;;14.05;5.25;;;;;;;24.71;60.55;100096.51;1651218;87;21020;-69
2021/07/14 09:58:47;;;;;;;5.67;3.62;;;;;;;24.60;60.67;100133.02;1625499;88;21751;-69
2021/07/14 10:01:19;;;;;;;10.85;4.30;;;;;;;24.43;60.88;100148.78;1644422;86;21394;-69
2021/07/14 10:03:52;;;;;;;10.10;4.00;;;;;;;24.22;61.12;100163.69;1666773;85;21144;-69
2021/07/14 10:06:21;;;;;;;8.05;5.10;;;;;;;24.00;61.45;100181.23;1629525;87;21452;-69
2021/07/14 10:08:48;;;;;;;11.40;5.35;;;;;;;23.83;61.80;100160.98;1630963;87;20952;-69
2021/07/14 10:11:18;;;;;;;8.50;4.40;;;;;;;23.77;62.17;100153.86;1623498;88;21774;-69
2021/07/14 10:14:05;;;;;;;9.55;4.67;;;;;;;23.71;62.48;100167.17;1624777;86;21478;-69
2021/07/14 10:16:40;;;;;;;9.00;3.90;;;;;;;23.59;62.79;100154.27;1624322;88;21055;-69
2021/07/14 10:19:12;;;;;;;7.87;3.10;;;;;;;23.39;63.20;100193.84;1624304;87;21033;-69
2021/07/14 10:21:45;;;;;;;12.20;3.67;;;;;;;23.19;63.47;100209.96;1632970;86;21034;-69
2021/07/14 10:24:13;;;;;;;8.73;3.40;;;;;;;22.98;63.79;100236.67;1649668;86;21771;-69
2021/07/14 10:26:44;;;;;;;5.35;3.05;;;;;;;22.69;64.11;100216.22;1655599;84;20965;-69
2021/07/14 10:29:11;;;;;;;5.85;2.70;;;;;;;22.38;64.47;100164.69;1630454;86;21048;-69
2021/07/14 10:31:37;;;;;;;7.85;3.20;;;;;;;22.37;64.85;100193.78;1629864;85;21380;-69
2021/07/14 10:34:05;;;;;;;5.97;3.10;;;;;;;22.22;65.19;100211.23;1647445;85;21939;-69
2021/07/14 10:36:33;;;;;;;9.38;3.67;;;;;;;22.09;65.56;100210.23;1653476;85;21768;-68
2021/07/14 10:39:03;;;;;;;11.40;3.47;;;;;;;22.02;65.90;100204.16;1649888;85;20953;-70
2021/07/14 10:41:30;;;;;;;10.58;4.37;;;;;;;21.94;66.25;100219.50;1654225;85;21073;-69
2021/07/14 10:43:58;;;;;;;9.55;3.67;;;;;;;21.83;66.57;100233.95;1650674;85;21061;-70
2021/07/14 10:46:25;;;;;;;13.05;4.10;;;;;;;21.60;66.90;100216.48;1654024;85;21053;-70
2021/07/14 10:48:53;;;;;;;6.00;3.27;;;;;;;21.33;67.33;100191.86;1627030;86;21428;-70
2021/07/14 10:51:20;;;;;;;5.58;2.92;;;;;;;21.23;67.74;100178.95;1620395;86;20943;-69
2021/07/14 10:53:53;;;;;;;6.30;3.17;;;;;;;21.11;68.11;100175.47;1641192;85;21011;-69
2021/07/14 10:56:19;;;;;;;14.80;7.80;;;;;;;20.97;68.46;100179.52;1652185;85;21125;-70
2021/07/14 10:58:45;;;;;;;23.98;11.53;;;;;;;20.86;68.82;100172.29;1647468;85;21558;-70
2021/07/14 11:01:11;;;;;;;23.47;12.28;;;;;;;20.77;69.13;100143.91;1625927;86;21874;-69
2021/07/14 11:03:45;;;;;;;27.70;14.95;;;;;;;20.70;69.41;100135.92;1640262;85;21026;-70
2021/07/14 11:06:15;;;;;;;27.07;13.48;;;;;;;20.66;69.73;100131.22;1646277;85;21082;-70
2021/07/14 11:08:48;;;;;;;24.82;13.08;;;;;;;20.66;70.04;100121.73;1628503;87;21540;-70
2021/07/14 11:11:19;;;;;;;15.83;9.98;;;;;;;20.68;70.32;100104.72;1652594;85;21113;-70
2021/07/14 11:13:48;;;;;;;13.88;7.85;;;;;;;20.70;70.58;100095.27;1646763;85;21483;-69
2021/07/14 11:16:33;;;;;;;10.10;5.28;;;;;;;20.72;70.82;100115.37;1625028;86;21073;-70
2021/07/14 11:19:10;;;;;;;7.70;4.17;;;;;;;20.76;71.11;100119.21;1650524;85;21592;-70
2021/07/14 11:22:00;;;;;;;10.20;3.85;;;;;;;20.84;71.34;100111.52;1617416;85;21562;-70
2021/07/14 11:24:46;;;;;;;8.13;3.27;;;;;;;20.94;71.55;100117.65;1618415;87;21097;-70
2021/07/14 11:27:30;;;;;;;8.90;4.53;;;;;;;21.12;71.72;100116.11;1626005;87;21913;-70
2021/07/14 11:30:07;;;;;;;8.48;3.33;;;;;;;21.24;71.81;100104.66;1618007;87;21030;-70
2021/07/14 11:32:39;;;;;;;5.42;3.37;;;;;;;21.29;71.92;100096.58;1620194;88;21041;-69
2021/07/14 11:35:26;;;;;;;6.37;3.72;;;;;;;21.33;72.06;100099.09;1620171;88;21060;-70